createdAt,value
2022-09-21T00:01:23.880Z,97.09
2022-09-21T00:03:55.041Z,96.97
2022-09-21T00:06:24.225Z,96.86
2022-09-21T00:08:52.452Z,96.73
2022-09-21T00:11:24.888Z,96.72
2022-09-21T00:13:55.328Z,96.99
2022-09-21T00:16:24.295Z,97.17
2022-09-21T00:18:54.059Z,97.37
2022-09-21T00:21:22.333Z,97.23
2022-09-21T00:23:50.297Z,97.17
2022-09-21T00:26:20.530Z,97.15
2022-09-21T00:28:49.347Z,96.97
2022-09-21T00:31:18.237Z,96.92
2022-09-21T00:33:46.871Z,97.10
2022-09-21T00:36:17.692Z,97.13
2022-09-21T00:38:46.539Z,97.05
2022-09-21T00:41:14.899Z,97.06
2022-09-21T00:43:47.110Z,96.98
2022-09-21T00:46:15.867Z,97.04
2022-09-21T00:48:45.998Z,96.95
2022-09-21T00:51:14.875Z,97.02
2022-09-21T00:53:44.375Z,96.83
2022-09-21T00:56:13.258Z,96.92
2022-09-21T00:58:46.177Z,97.01
2022-09-21T01:01:16.226Z,96.99
2022-09-21T01:03:45.805Z,97.04
2022-09-21T01:06:14.560Z,96.86
2022-09-21T01:08:44.071Z,96.76
2022-09-21T01:11:25.542Z,96.77
2022-09-21T01:14:08.104Z,96.75
2022-09-21T01:16:36.193Z,96.72
2022-09-21T01:19:15.234Z,96.78
2022-09-21T01:21:51.918Z,96.76
2022-09-21T01:24:42.791Z,96.83
2022-09-21T01:27:46.896Z,96.91
2022-09-21T01:30:18.281Z,96.96
2022-09-21T01:32:48.972Z,97.03
2022-09-21T01:35:20.299Z,97.16
2022-09-21T01:37:51.030Z,97.18
2022-09-21T01:40:22.030Z,97.21
2022-09-21T01:42:51.627Z,97.22
2022-09-21T01:45:24.985Z,97.14
2022-09-21T01:47:53.232Z,97.15
2022-09-21T01:50:21.878Z,97.24
2022-09-21T01:52:53.897Z,97.22
2022-09-21T01:55:27.348Z,97.16
2022-09-21T01:57:59.174Z,97.13
2022-09-21T02:00:29.462Z,97.13
2022-09-21T02:03:01.065Z,97.05
2022-09-21T02:05:30.266Z,97.03
2022-09-21T02:07:59.078Z,97.32
2022-09-21T02:10:29.881Z,97.62
2022-09-21T02:13:01.359Z,97.46
2022-09-21T02:15:35.870Z,97.32
2022-09-21T02:18:07.016Z,97.26
2022-09-21T02:20:38.144Z,97.29
2022-09-21T02:23:12.871Z,97.29
2022-09-21T02:25:47.564Z,97.23
2022-09-21T02:28:24.509Z,97.29
2022-09-21T02:30:59.824Z,97.34
2022-09-21T02:33:31.467Z,97.33
2022-09-21T02:36:04.904Z,97.37
2022-09-21T02:38:36.659Z,97.41
2022-09-21T02:41:09.112Z,97.37
2022-09-21T02:43:40.239Z,97.37
2022-09-21T02:46:12.639Z,97.32
2022-09-21T02:48:44.361Z,97.28
2022-09-21T02:51:14.962Z,97.36
2022-09-21T02:53:43.476Z,97.32
2022-09-21T02:56:11.766Z,97.31
2022-09-21T02:58:41.567Z,97.32
2022-09-21T03:01:13.523Z,97.35
2022-09-21T03:03:42.256Z,97.40
2022-09-21T03:06:10.402Z,97.39
2022-09-21T03:08:38.360Z,97.33
2022-09-21T03:11:06.935Z,97.25
2022-09-21T03:13:36.755Z,97.36
2022-09-21T03:16:07.154Z,97.25
2022-09-21T03:18:36.482Z,97.29
2022-09-21T03:21:04.789Z,97.17
2022-09-21T03:23:32.937Z,97.24
2022-09-21T03:26:00.896Z,97.53
2022-09-21T03:28:28.981Z,97.42
2022-09-21T03:30:57.039Z,97.35
2022-09-21T03:33:26.139Z,97.32
2022-09-21T03:35:55.568Z,97.20
2022-09-21T03:38:24.339Z,97.11
2022-09-21T03:40:52.702Z,97.05
2022-09-21T03:43:20.648Z,97.17
2022-09-21T03:45:49.244Z,97.18
2022-09-21T03:48:17.484Z,97.07
2022-09-21T03:50:45.560Z,97.05
2022-09-21T03:53:15.286Z,97.19
2022-09-21T03:55:43.664Z,97.18
2022-09-21T03:58:11.699Z,97.20
2022-09-21T04:00:40.102Z,97.31
2022-09-21T04:03:08.431Z,97.15
2022-09-21T04:05:36.519Z,97.09
2022-09-21T04:08:04.550Z,97.11
2022-09-21T04:10:33.942Z,97.18
2022-09-21T04:13:02.673Z,97.35
2022-09-21T04:15:31.275Z,97.40
2022-09-21T04:17:59.518Z,97.54
2022-09-21T04:20:27.632Z,97.49
2022-09-21T04:22:55.601Z,97.40
2022-09-21T04:25:23.541Z,97.32
2022-09-21T04:27:53.020Z,97.38
2022-09-21T04:30:21.222Z,97.43
2022-09-21T04:32:49.199Z,97.43
2022-09-21T04:35:17.160Z,97.38
2022-09-21T04:37:45.330Z,97.52
2022-09-21T04:40:13.432Z,97.48
2022-09-21T04:42:41.424Z,97.44
2022-09-21T04:45:12.128Z,97.41
2022-09-21T04:47:40.184Z,97.39
2022-09-21T04:50:09.544Z,97.41
2022-09-21T04:52:37.620Z,97.34
2022-09-21T04:55:06.580Z,97.32
2022-09-21T04:57:35.720Z,97.37
2022-09-21T05:00:05.057Z,97.41
2022-09-21T05:02:34.604Z,97.35
2022-09-21T05:05:02.885Z,97.34
2022-09-21T05:07:30.861Z,97.38
2022-09-21T05:10:03.753Z,97.43
2022-09-21T05:12:31.820Z,97.48
2022-09-21T05:14:59.840Z,97.68
2022-09-21T05:17:28.027Z,98.05
2022-09-21T05:19:57.391Z,98.43
2022-09-21T05:22:25.596Z,98.60
2022-09-21T05:24:53.626Z,98.86
2022-09-21T05:27:21.568Z,99.02
2022-09-21T05:29:50.201Z,99.11
2022-09-21T05:32:23.225Z,99.10
2022-09-21T05:34:57.954Z,99.06
2022-09-21T05:37:40.318Z,98.96
2022-09-21T05:40:11.974Z,98.92
2022-09-21T05:42:40.494Z,98.87
2022-09-21T05:45:10.999Z,98.81
2022-09-21T05:47:41.126Z,98.78
2022-09-21T05:50:34.673Z,98.75
2022-09-21T05:53:14.554Z,98.77
2022-09-21T05:55:50.737Z,98.75
2022-09-21T05:58:22.621Z,98.83
2022-09-21T06:00:58.898Z,98.69
2022-09-21T06:03:29.594Z,98.70
2022-09-21T06:05:59.462Z,98.80
2022-09-21T06:08:27.651Z,98.76
2022-09-21T06:10:56.163Z,98.84
2022-09-21T06:13:24.184Z,98.74
2022-09-21T06:15:52.234Z,98.54
2022-09-21T06:18:20.563Z,98.54
2022-09-21T06:20:48.549Z,98.08
2022-09-21T06:23:17.940Z,97.76
2022-09-21T06:25:45.939Z,97.61
2022-09-21T06:28:14.209Z,97.19
2022-09-21T06:30:45.079Z,96.67
2022-09-21T06:33:13.166Z,96.03
2022-09-21T06:35:41.388Z,95.27
2022-09-21T06:38:09.486Z,94.44
2022-09-21T06:40:38.875Z,94.34
2022-09-21T06:43:07.275Z,93.91
2022-09-21T06:45:35.354Z,93.38
2022-09-21T06:48:03.541Z,93.19
2022-09-21T06:50:31.614Z,93.05
2022-09-21T06:53:01.086Z,92.99
2022-09-21T06:55:29.571Z,92.83
2022-09-21T06:58:02.858Z,92.73
2022-09-21T07:00:31.446Z,92.70
2022-09-21T07:02:59.549Z,92.75
2022-09-21T07:05:27.856Z,92.61
2022-09-21T07:07:58.548Z,92.69
2022-09-21T07:10:26.862Z,92.87
2022-09-21T07:12:54.930Z,92.85
2022-09-21T07:15:25.238Z,92.90
2022-09-21T07:18:04.848Z,92.75
2022-09-21T07:20:33.908Z,92.73
2022-09-21T07:23:01.988Z,92.75
2022-09-21T07:25:30.076Z,92.59
2022-09-21T07:28:01.327Z,92.18
2022-09-21T07:30:30.882Z,91.96
2022-09-21T07:35:53.804Z,92.94
2022-09-21T07:38:21.770Z,92.16
2022-09-21T07:40:52.551Z,90.90
2022-09-21T07:43:20.683Z,89.59
2022-09-21T07:45:56.128Z,87.08
2022-09-21T07:48:24.670Z,84.78
2022-09-21T07:50:52.614Z,82.81
2022-09-21T07:53:21.144Z,79.87
2022-09-21T07:55:49.129Z,77.97
2022-09-21T07:58:35.096Z,76.26
2022-09-21T08:01:07.453Z,73.85
2022-09-21T08:03:35.423Z,73.25
2022-09-21T08:06:04.210Z,73.12
2022-09-21T08:08:32.185Z,72.73
2022-09-21T08:11:04.043Z,70.26
2022-09-21T08:13:32.504Z,70.94
2022-09-21T08:16:01.124Z,70.25
2022-09-21T08:18:30.997Z,68.94
2022-09-21T08:21:00.773Z,69.08
2022-09-21T08:23:29.036Z,66.58
2022-09-21T08:26:00.642Z,65.48
2022-09-21T08:28:29.055Z,65.18
2022-09-21T08:31:00.626Z,64.18
2022-09-21T08:33:32.706Z,64.31
2022-09-21T08:36:01.657Z,63.68
2022-09-21T08:38:34.449Z,64.40
2022-09-21T08:41:03.111Z,63.57
2022-09-21T08:43:34.133Z,65.60
2022-09-21T08:46:05.111Z,63.15
2022-09-21T08:48:40.193Z,64.18
2022-09-21T08:51:10.489Z,62.50
2022-09-21T08:53:40.281Z,63.03
2022-09-21T08:56:10.094Z,63.52
2022-09-21T08:58:40.621Z,63.18
2022-09-21T09:01:24.708Z,60.78
2022-09-21T09:04:15.372Z,60.33
2022-09-21T09:06:50.003Z,62.95
2022-09-21T09:09:30.535Z,61.66
2022-09-21T09:12:12.003Z,61.58
2022-09-21T09:14:54.471Z,59.88
2022-09-21T09:17:25.704Z,61.47
2022-09-21T09:20:01.247Z,61.71
2022-09-21T09:22:33.059Z,59.24
2022-09-21T09:25:04.904Z,60.04
2022-09-21T09:27:36.609Z,60.42
2022-09-21T09:30:06.927Z,62.17
2022-09-21T09:32:38.668Z,61.13
2022-09-21T09:35:18.685Z,58.55
2022-09-21T09:37:48.348Z,59.26
2022-09-21T09:40:17.842Z,59.83
2022-09-21T09:42:54.175Z,60.10
2022-09-21T09:45:36.937Z,59.63
2022-09-21T09:48:16.612Z,59.99
2022-09-21T09:50:46.297Z,61.05
2022-09-21T09:53:16.921Z,58.33
2022-09-21T09:55:46.761Z,58.43
2022-09-21T10:01:37.022Z,56.73
2022-09-21T10:04:09.600Z,57.58
2022-09-21T10:06:43.705Z,59.53
2022-09-21T10:09:21.830Z,59.71
2022-09-21T10:11:49.945Z,61.22
2022-09-21T10:14:20.386Z,58.45
2022-09-21T10:16:51.793Z,58.59
2022-09-21T10:19:22.647Z,57.74
2022-09-21T10:21:57.182Z,59.03
2022-09-21T10:24:26.836Z,61.65
2022-09-21T10:26:56.576Z,64.45
2022-09-21T10:29:32.363Z,62.80
2022-09-21T10:32:01.731Z,63.30
2022-09-21T10:34:31.218Z,63.07
2022-09-21T10:37:02.854Z,63.64
2022-09-21T10:39:31.871Z,62.60
2022-09-21T10:42:02.811Z,59.38
2022-09-21T10:44:37.553Z,60.67
2022-09-21T10:47:22.378Z,60.22
2022-09-21T10:49:53.065Z,58.87
2022-09-21T10:52:25.364Z,60.33
2022-09-21T10:54:56.394Z,59.34
2022-09-21T10:57:26.790Z,57.58
2022-09-21T10:59:55.067Z,55.86
2022-09-21T11:02:46.655Z,56.01
2022-09-21T11:05:16.976Z,55.26
2022-09-21T11:07:52.196Z,54.40
2022-09-21T11:10:23.775Z,53.84
2022-09-21T11:15:58.190Z,57.26
2022-09-21T11:18:35.752Z,55.37
2022-09-21T11:21:07.118Z,55.64
2022-09-21T11:23:45.423Z,58.64
2022-09-21T11:26:16.762Z,58.27
2022-09-21T11:28:49.298Z,58.46
2022-09-21T11:31:42.626Z,59.33
2022-09-21T11:34:28.684Z,59.55
2022-09-21T11:37:09.919Z,60.49
2022-09-21T11:39:50.550Z,60.90
2022-09-21T11:42:33.770Z,61.52
2022-09-21T11:45:03.306Z,61.91
2022-09-21T11:47:54.651Z,60.86
2022-09-21T11:50:42.899Z,57.92
2022-09-21T11:53:34.213Z,54.69
2022-09-21T11:56:45.841Z,55.72
2022-09-21T11:59:40.060Z,54.89
2022-09-21T12:02:23.748Z,55.16
2022-09-21T12:04:55.923Z,56.04
2022-09-21T12:07:34.664Z,54.95
2022-09-21T12:10:17.000Z,55.53
2022-09-21T12:12:50.268Z,54.89
2022-09-21T12:15:22.396Z,57.02
2022-09-21T12:17:57.838Z,56.14
2022-09-21T12:20:33.157Z,56.56
2022-09-21T12:23:03.305Z,57.13
2022-09-21T12:25:36.025Z,54.89
2022-09-21T12:28:09.957Z,54.01
2022-09-21T12:30:39.438Z,56.68
2022-09-21T12:33:12.762Z,56.75
2022-09-21T12:35:44.154Z,54.29
2022-09-21T12:38:16.920Z,54.26
2022-09-21T12:40:49.975Z,56.21
2022-09-21T12:43:28.213Z,56.74
2022-09-21T12:45:59.321Z,56.03
2022-09-21T12:48:33.521Z,56.84
2022-09-21T12:51:06.436Z,58.39
2022-09-21T12:53:37.812Z,56.39
2022-09-21T12:56:09.964Z,56.02
2022-09-21T12:58:52.165Z,55.36
2022-09-21T13:01:27.296Z,54.90
2022-09-21T13:04:10.450Z,57.00
2022-09-21T13:06:53.825Z,56.54
2022-09-21T13:09:22.022Z,56.32
2022-09-21T13:11:54.495Z,55.47
2022-09-21T13:14:24.310Z,55.70
2022-09-21T13:16:57.749Z,55.52
2022-09-21T13:19:29.107Z,56.75
2022-09-21T13:22:23.166Z,55.63
2022-09-21T13:25:08.823Z,56.77
2022-09-21T13:28:04.246Z,58.19
2022-09-21T13:30:36.735Z,59.24
2022-09-21T13:33:09.169Z,60.06
2022-09-21T13:36:02.203Z,59.84
2022-09-21T13:38:34.103Z,58.20
2022-09-21T13:41:03.209Z,59.49
2022-09-21T13:44:04.964Z,61.46
2022-09-21T13:47:01.635Z,59.21
2022-09-21T13:49:59.736Z,61.08
2022-09-21T13:52:32.650Z,60.04
2022-09-21T13:55:01.980Z,59.88
2022-09-21T13:57:34.344Z,60.03
2022-09-21T14:00:09.203Z,60.22
2022-09-21T14:02:41.004Z,58.77
2022-09-21T14:05:21.173Z,58.87
2022-09-21T14:07:56.246Z,58.39
2022-09-21T14:10:24.785Z,58.71
2022-09-21T14:12:53.263Z,58.95
2022-09-21T14:15:40.930Z,59.38
2022-09-21T14:18:20.448Z,58.61
2022-09-21T14:21:17.088Z,59.11
2022-09-21T14:24:09.906Z,57.74
2022-09-21T14:26:50.580Z,58.92
2022-09-21T14:29:22.314Z,58.47
2022-09-21T14:31:51.430Z,58.85
2022-09-21T14:34:24.686Z,60.19
2022-09-21T14:36:55.594Z,59.72
2022-09-21T14:39:27.479Z,59.37
2022-09-21T14:41:58.150Z,59.95
2022-09-21T14:44:30.051Z,60.10
2022-09-21T14:47:08.711Z,58.14
2022-09-21T14:50:04.191Z,58.48
2022-09-21T14:52:42.429Z,58.92
2022-09-21T14:55:17.755Z,57.88
2022-09-21T14:58:09.409Z,57.45
2022-09-21T15:00:39.669Z,58.10
2022-09-21T15:03:26.424Z,58.32
2022-09-21T15:06:28.872Z,58.73
2022-09-21T15:09:27.675Z,59.21
2022-09-21T15:12:00.361Z,59.59
2022-09-21T15:14:34.288Z,60.82
2022-09-21T15:17:20.205Z,61.02
2022-09-21T15:19:50.055Z,59.89
2022-09-21T15:22:20.818Z,62.14
2022-09-21T15:24:52.963Z,60.80
2022-09-21T15:27:23.815Z,60.40
2022-09-21T15:29:53.815Z,59.91
2022-09-21T15:32:27.970Z,60.39
2022-09-21T15:35:01.381Z,60.49
2022-09-21T15:37:36.415Z,61.44
2022-09-21T15:40:15.382Z,61.45
2022-09-21T15:43:01.042Z,60.76
2022-09-21T15:45:30.504Z,61.44
2022-09-21T15:47:58.451Z,61.04
2022-09-21T15:50:27.753Z,60.61
2022-09-21T15:53:00.543Z,60.91
2022-09-21T15:55:29.964Z,61.38
2022-09-21T15:57:58.854Z,61.60
2022-09-21T16:00:28.284Z,62.13
2022-09-21T16:03:04.881Z,62.48
2022-09-21T16:05:35.684Z,62.46
2022-09-21T16:08:28.837Z,63.50
2022-09-21T16:11:15.056Z,63.20
2022-09-21T16:14:01.625Z,63.12
2022-09-21T16:16:29.694Z,63.93
2022-09-21T16:18:59.962Z,63.61
2022-09-21T16:21:30.896Z,65.31
2022-09-21T16:24:09.889Z,64.79
2022-09-21T16:26:39.909Z,64.82
2022-09-21T16:29:19.613Z,65.20
2022-09-21T16:31:50.347Z,65.75
2022-09-21T16:34:26.138Z,66.23
2022-09-21T16:36:54.739Z,66.69
2022-09-21T16:39:24.205Z,66.93
2022-09-21T16:42:00.062Z,67.78
2022-09-21T16:44:31.463Z,67.95
2022-09-21T16:47:00.536Z,68.17
2022-09-21T16:49:31.278Z,68.88
2022-09-21T16:51:59.989Z,69.28
2022-09-21T16:54:29.754Z,69.40
2022-09-21T16:56:59.357Z,69.99
2022-09-21T16:59:28.458Z,70.18
2022-09-21T17:01:59.080Z,70.43
2022-09-21T17:04:28.933Z,70.15
2022-09-21T17:06:57.760Z,70.76
2022-09-21T17:09:29.755Z,71.05
2022-09-21T17:12:01.836Z,70.91
2022-09-21T17:14:32.951Z,71.49
2022-09-21T17:17:01.101Z,71.66
2022-09-21T17:19:29.025Z,71.92
2022-09-21T17:21:56.989Z,72.49
2022-09-21T17:24:48.693Z,72.50
2022-09-21T17:27:17.564Z,73.02
2022-09-21T17:29:47.389Z,73.96
2022-09-21T17:32:16.353Z,74.39
2022-09-21T17:34:46.065Z,74.98
2022-09-21T17:37:14.300Z,75.51
2022-09-21T17:39:44.912Z,76.40
2022-09-21T17:42:19.078Z,76.97
2022-09-21T17:44:55.200Z,77.26
2022-09-21T17:47:27.976Z,77.36
2022-09-21T17:49:57.080Z,77.53
2022-09-21T17:52:39.429Z,77.58
2022-09-21T17:55:09.415Z,77.93
2022-09-21T17:57:48.244Z,78.42
2022-09-21T18:00:21.041Z,78.52
2022-09-21T18:02:49.660Z,78.89
2022-09-21T18:05:26.224Z,79.46
2022-09-21T18:07:54.600Z,79.79
2022-09-21T18:10:25.898Z,80.12
2022-09-21T18:13:08.032Z,80.68
2022-09-21T18:15:44.255Z,81.15
2022-09-21T18:18:19.165Z,81.54
2022-09-21T18:20:57.741Z,81.84
2022-09-21T18:23:32.804Z,82.18
2022-09-21T18:26:01.486Z,82.69
2022-09-21T18:28:39.383Z,83.35
2022-09-21T18:31:36.784Z,83.72
2022-09-21T18:34:18.332Z,84.02
2022-09-21T18:36:51.348Z,84.30
2022-09-21T18:39:25.429Z,84.70
2022-09-21T18:42:05.907Z,85.23
2022-09-21T18:44:39.107Z,85.27
2022-09-21T18:47:11.571Z,85.61
2022-09-21T18:49:57.847Z,85.92
2022-09-21T18:52:39.242Z,86.14
2022-09-21T18:55:17.436Z,86.35
2022-09-21T18:57:46.335Z,86.70
2022-09-21T19:00:17.139Z,87.04
2022-09-21T19:03:05.327Z,87.06
2022-09-21T19:05:34.504Z,87.22
2022-09-21T19:08:09.276Z,87.30
2022-09-21T19:10:38.369Z,87.66
2022-09-21T19:13:16.878Z,87.80
2022-09-21T19:16:00.765Z,88.03
2022-09-21T19:18:37.134Z,88.17
2022-09-21T19:21:16.075Z,88.42
2022-09-21T19:24:02.936Z,88.73
2022-09-21T19:26:37.090Z,88.85
2022-09-21T19:29:21.645Z,88.81
2022-09-21T19:31:51.376Z,88.76
2022-09-21T19:34:20.303Z,88.94
2022-09-21T19:36:48.599Z,89.37
2022-09-21T19:39:17.225Z,89.66
2022-09-21T19:41:54.932Z,89.99
2022-09-21T19:44:35.906Z,90.09
2022-09-21T19:47:12.805Z,90.04
2022-09-21T19:49:48.382Z,90.21
2022-09-21T19:52:18.135Z,90.17
2022-09-21T19:55:04.509Z,90.30
2022-09-21T19:57:51.895Z,90.53
2022-09-21T20:00:22.721Z,90.78
2022-09-21T20:03:01.141Z,90.93
2022-09-21T20:05:35.147Z,91.24
2022-09-21T20:08:06.218Z,91.46
2022-09-21T20:10:51.606Z,91.68
2022-09-21T20:13:31.839Z,91.87
2022-09-21T20:16:03.746Z,91.90
2022-09-21T20:18:53.272Z,91.77
2022-09-21T20:21:23.059Z,91.72
2022-09-21T20:23:58.447Z,91.59
2022-09-21T20:26:28.088Z,91.57
2022-09-21T20:28:56.539Z,91.73
2022-09-21T20:31:25.943Z,91.89
2022-09-21T20:33:55.350Z,91.82
2022-09-21T20:36:23.383Z,91.97
2022-09-21T20:38:51.436Z,91.78
2022-09-21T20:41:19.815Z,91.85
2022-09-21T20:43:47.787Z,91.83
2022-09-21T20:46:15.774Z,91.99
2022-09-21T20:48:43.884Z,92.08
2022-09-21T20:51:13.333Z,92.12
2022-09-21T20:53:41.521Z,91.79
2022-09-21T20:56:09.435Z,91.86
2022-09-21T20:58:37.380Z,91.92
2022-09-21T21:01:06.359Z,92.03
2022-09-21T21:03:34.671Z,92.12
2022-09-21T21:06:10.848Z,92.17
2022-09-21T21:08:40.350Z,92.48
2022-09-21T21:11:10.693Z,92.64
2022-09-21T21:13:38.902Z,92.84
2022-09-21T21:16:11.755Z,92.89
2022-09-21T21:18:40.945Z,92.83
2022-09-21T21:21:09.262Z,92.78
2022-09-21T21:23:57.602Z,92.85
2022-09-21T21:26:50.260Z,93.19
2022-09-21T21:29:14.935Z,93.37
2022-09-21T21:31:43.155Z,93.27
2022-09-21T21:34:11.204Z,93.41
2022-09-21T21:36:39.254Z,93.62
2022-09-21T21:39:07.902Z,93.68
2022-09-21T21:41:37.224Z,93.60
2022-09-21T21:44:05.155Z,93.48
2022-09-21T21:46:33.260Z,93.41
2022-09-21T21:49:01.359Z,93.37
2022-09-21T21:51:29.999Z,93.35
2022-09-21T21:53:58.022Z,93.55
2022-09-21T21:56:26.559Z,93.61
2022-09-21T21:58:56.636Z,93.73
2022-09-21T22:01:27.404Z,93.85
2022-09-21T22:03:56.521Z,93.85
2022-09-21T22:06:24.976Z,93.97
2022-09-21T22:08:53.295Z,94.01
2022-09-21T22:11:22.290Z,94.05
2022-09-21T22:13:50.374Z,94.15
2022-09-21T22:16:22.089Z,94.15
2022-09-21T22:18:51.241Z,94.18
2022-09-21T22:21:22.187Z,94.24
2022-09-21T22:23:53.512Z,94.33
2022-09-21T22:26:22.499Z,94.35
2022-09-21T22:28:52.135Z,94.40
2022-09-21T22:31:22.900Z,94.47
2022-09-21T22:33:50.916Z,94.55
2022-09-21T22:36:20.350Z,94.54
2022-09-21T22:38:49.844Z,94.58
2022-09-21T22:41:19.150Z,94.56
2022-09-21T22:43:48.127Z,94.59
2022-09-21T22:46:17.321Z,94.69
2022-09-21T22:48:47.574Z,94.70
2022-09-21T22:51:17.373Z,94.68
2022-09-21T22:53:46.282Z,94.76
2022-09-21T22:56:15.337Z,94.81
2022-09-21T22:58:44.981Z,94.76
2022-09-21T23:01:15.053Z,94.76
2022-09-21T23:03:43.157Z,94.76
2022-09-21T23:06:13.857Z,94.83
2022-09-21T23:08:41.883Z,94.85
2022-09-21T23:11:11.672Z,94.84
2022-09-21T23:13:39.992Z,94.84
2022-09-21T23:16:11.054Z,94.80
2022-09-21T23:18:40.258Z,94.82
2022-09-21T23:21:09.803Z,94.83
2022-09-21T23:23:39.245Z,94.83
2022-09-21T23:26:09.427Z,94.84
2022-09-21T23:28:38.527Z,94.78
2022-09-21T23:31:08.121Z,94.74
2022-09-21T23:33:37.396Z,94.58
2022-09-21T23:36:06.999Z,94.60
2022-09-21T23:38:35.599Z,94.49
2022-09-21T23:41:08.151Z,94.25
2022-09-21T23:43:37.200Z,94.25
2022-09-21T23:46:06.092Z,94.19
2022-09-21T23:48:34.444Z,94.13
2022-09-21T23:51:02.947Z,94.07
2022-09-21T23:53:31.637Z,94.17
2022-09-21T23:55:59.845Z,94.02
2022-09-21T23:58:29.644Z,94.03
